Time;durP1;ratioP1;P1;durP2;ratioP2;P2;SDS_P1;SDS_P2;PMS_P1;PMS_P2;Temp;Humidity;BMP_temperature;BMP_pressure;BME280_temperature;BME280_humidity;BME280_pressure;Samples;Min_cycle;Max_cycle;Signal;HPM_P1;HPM_P2
2022/09/10 00:01:46;;;;;;;26.88;14.27;;;16.20;99.90;;;;;;5040568;28;20242;-69
2022/09/10 00:04:13;;;;;;;23.83;14.95;;;16.20;99.90;;;;;;5051755;28;20191;-69
2022/09/10 00:06:40;;;;;;;25.95;14.93;;;16.20;99.90;;;;;;5055236;28;20547;-69
2022/09/10 00:09:06;;;;;;;26.40;14.02;;;16.20;99.90;;;;;;5051349;28;20180;-69
2022/09/10 00:11:34;;;;;;;21.75;13.55;;;16.20;99.90;;;;;;5045549;28;20187;-69
2022/09/10 00:14:02;;;;;;;19.77;13.55;;;16.30;99.90;;;;;;5053987;28;20183;-69
2022/09/10 00:16:29;;;;;;;22.58;13.55;;;16.20;99.90;;;;;;5054620;28;20266;-68
2022/09/10 00:18:59;;;;;;;26.48;14.43;;;16.20;99.90;;;;;;5055606;28;20700;-68
2022/09/10 00:21:26;;;;;;;27.02;15.07;;;16.20;99.90;;;;;;5048539;28;20351;-68
2022/09/10 00:23:52;;;;;;;26.58;14.38;;;16.20;99.90;;;;;;5045005;28;20642;-69
2022/09/10 00:26:22;;;;;;;24.83;13.85;;;16.20;99.90;;;;;;5054404;28;20194;-69
2022/09/10 00:28:53;;;;;;;27.13;15.00;;;16.20;99.90;;;;;;5053556;28;20304;-69
2022/09/10 00:31:20;;;;;;;32.28;15.88;;;16.20;99.90;;;;;;5051403;28;20176;-71
2022/09/10 00:33:46;;;;;;;31.38;16.48;;;16.20;99.90;;;;;;5045768;28;20647;-68
2022/09/10 00:36:21;;;;;;;28.60;17.10;;;16.20;99.90;;;;;;5054070;28;20183;-69
2022/09/10 00:38:49;;;;;;;31.80;17.45;;;16.20;99.90;;;;;;5054754;28;20177;-69
2022/09/10 00:41:16;;;;;;;31.02;17.65;;;16.20;99.90;;;;;;5053253;28;20211;-68
2022/09/10 00:43:50;;;;;;;36.90;18.13;;;16.20;99.90;;;;;;5041354;28;20179;-69
2022/09/10 00:46:29;;;;;;;32.13;19.02;;;16.20;99.90;;;;;;5055167;28;20182;-68
2022/09/10 00:48:57;;;;;;;35.97;18.75;;;16.20;99.90;;;;;;5053387;28;20553;-68
2022/09/10 00:51:25;;;;;;;35.13;18.77;;;16.20;99.90;;;;;;5064656;28;20654;-69
2022/09/10 00:53:52;;;;;;;34.30;19.25;;;16.30;99.90;;;;;;5039812;28;20175;-71
2022/09/10 00:56:18;;;;;;;27.42;17.92;;;16.20;99.90;;;;;;5052824;28;20194;-68
2022/09/10 00:58:47;;;;;;;28.50;17.88;;;16.20;99.90;;;;;;5053917;28;20175;-67
2022/09/10 01:01:13;;;;;;;34.35;18.02;;;16.30;99.90;;;;;;5051516;28;20238;-68
2022/09/10 01:03:40;;;;;;;30.80;16.98;;;16.20;99.90;;;;;;5050436;28;20335;-70
2022/09/10 01:06:06;;;;;;;26.23;15.25;;;16.20;99.90;;;;;;5049206;28;20191;-67
2022/09/10 01:08:32;;;;;;;28.08;15.30;;;16.20;99.90;;;;;;5070663;28;20592;-67
2022/09/10 01:11:41;;;;;;;30.30;14.80;;;16.20;99.90;;;;;;5056301;28;20281;-67
2022/09/10 01:14:25;;;;;;;25.05;14.23;;;16.20;99.90;;;;;;5038920;28;20202;-68
2022/09/10 01:16:51;;;;;;;24.08;11.55;;;16.20;99.90;;;;;;5037932;28;21119;-68
2022/09/10 01:19:55;;;;;;;18.08;10.73;;;16.10;99.90;;;;;;5062967;28;20183;-67
2022/09/10 01:22:42;;;;;;;23.85;10.05;;;16.10;99.90;;;;;;5054228;28;20217;-69
2022/09/10 01:25:42;;;;;;;18.48;8.20;;;16.10;99.90;;;;;;5067995;28;20191;-68
2022/09/10 01:28:18;;;;;;;17.08;7.40;;;16.10;99.90;;;;;;5056805;28;20175;-68
2022/09/10 01:30:49;;;;;;;14.10;6.78;;;16.00;99.90;;;;;;5056031;28;20178;-68
2022/09/10 01:33:19;;;;;;;10.95;6.20;;;16.00;99.90;;;;;;5051855;28;20184;-69
2022/09/10 01:35:50;;;;;;;16.77;6.70;;;16.00;99.90;;;;;;5051118;28;20207;-70
2022/09/10 01:38:34;;;;;;;14.85;6.72;;;15.90;99.90;;;;;;5039204;28;20576;-69
2022/09/10 01:41:01;;;;;;;18.48;6.97;;;15.90;99.90;;;;;;5050052;28;20303;-70
2022/09/10 01:43:32;;;;;;;17.05;7.10;;;15.90;99.90;;;;;;5033978;28;20220;-71
2022/09/10 01:46:26;;;;;;;18.23;7.47;;;15.90;99.90;;;;;;5050757;28;20191;-70
2022/09/10 01:49:10;;;;;;;15.93;8.77;;;15.90;99.90;;;;;;5051043;28;20232;-70
2022/09/10 01:52:01;;;;;;;17.95;9.05;;;15.80;99.90;;;;;;5041309;28;21219;-71
2022/09/10 01:55:07;;;;;;;18.80;9.45;;;15.80;99.90;;;;;;5037249;28;20314;-68
2022/09/10 01:57:57;;;;;;;25.65;10.57;;;15.90;99.90;;;;;;5023497;28;20548;-68
2022/09/10 02:00:32;;;;;;;20.52;10.60;;;15.90;99.90;;;;;;5036877;28;20202;-70
2022/09/10 02:03:10;;;;;;;20.40;12.15;;;15.90;99.90;;;;;;5042270;28;20176;-69
2022/09/10 02:05:40;;;;;;;27.02;13.20;;;15.90;99.90;;;;;;5052289;28;20230;-69
2022/09/10 02:08:19;;;;;;;23.73;13.55;;;15.90;99.90;;;;;;5052970;28;20274;-69
2022/09/10 02:10:54;;;;;;;22.33;14.40;;;15.90;99.90;;;;;;5050235;28;20183;-69
2022/09/10 02:13:24;;;;;;;26.75;15.35;;;15.90;99.90;;;;;;5053382;28;20328;-70
2022/09/10 02:16:10;;;;;;;28.75;15.82;;;15.90;99.90;;;;;;5051286;28;20258;-69
2022/09/10 02:18:43;;;;;;;35.83;17.55;;;15.90;99.90;;;;;;5052749;28;20654;-68
2022/09/10 02:21:11;;;;;;;29.42;17.33;;;15.90;99.90;;;;;;5050388;28;20659;-68
2022/09/10 02:23:51;;;;;;;31.77;18.38;;;15.90;99.90;;;;;;5041001;28;20198;-68
2022/09/10 02:26:17;;;;;;;38.13;19.23;;;16.00;99.90;;;;;;5064231;28;20179;-68
2022/09/10 02:28:43;;;;;;;33.95;19.50;;;16.00;99.90;;;;;;5066330;28;20215;-69
2022/09/10 02:31:11;;;;;;;33.80;20.13;;;16.00;99.90;;;;;;5051523;28;20206;-67
2022/09/10 02:33:37;;;;;;;36.38;21.83;;;16.00;99.90;;;;;;5041875;28;20184;-68
2022/09/10 02:36:03;;;;;;;36.85;20.45;;;16.00;99.90;;;;;;5048283;28;20324;-68
2022/09/10 02:38:31;;;;;;;32.22;22.30;;;16.00;99.90;;;;;;5053715;28;20194;-69
2022/09/10 02:40:58;;;;;;;34.63;22.08;;;16.10;99.90;;;;;;5065462;28;20211;-69
2022/09/10 02:43:28;;;;;;;40.90;22.25;;;16.10;99.90;;;;;;5047538;28;20178;-69
2022/09/10 02:45:57;;;;;;;37.35;22.42;;;16.10;99.90;;;;;;5063782;28;20203;-68
2022/09/10 02:48:25;;;;;;;35.00;20.90;;;16.10;99.90;;;;;;5051936;28;20245;-68
2022/09/10 02:50:53;;;;;;;40.05;22.05;;;16.10;99.90;;;;;;5037286;28;20211;-68
2022/09/10 02:53:20;;;;;;;38.85;21.33;;;16.10;99.90;;;;;;5051265;28;20171;-67
2022/09/10 02:55:51;;;;;;;33.60;21.98;;;16.10;99.90;;;;;;5051120;28;20269;-67
2022/09/10 02:58:17;;;;;;;37.05;21.25;;;16.20;99.90;;;;;;5032091;28;20263;-67
2022/09/10 03:00:44;;;;;;;38.17;21.55;;;16.10;99.90;;;;;;5035151;28;20214;-70
2022/09/10 03:03:11;;;;;;;30.15;19.30;;;16.10;99.90;;;;;;5061488;28;20221;-67
2022/09/10 03:05:37;;;;;;;35.83;18.83;;;16.20;99.90;;;;;;5053010;28;20219;-67
2022/09/10 03:08:08;;;;;;;32.22;19.20;;;16.10;99.90;;;;;;5050969;28;20233;-67
2022/09/10 03:10:36;;;;;;;32.85;19.88;;;16.20;99.90;;;;;;5027833;28;20269;-68
2022/09/10 03:13:02;;;;;;;35.13;19.08;;;16.20;99.90;;;;;;5056189;28;20187;-67
2022/09/10 03:15:28;;;;;;;32.88;18.55;;;16.20;99.90;;;;;;5049548;28;20238;-67
2022/09/10 03:17:54;;;;;;;39.50;18.50;;;16.20;99.90;;;;;;5050606;28;20175;-67
2022/09/10 03:20:22;;;;;;;30.52;17.95;;;16.20;99.90;;;;;;5049781;28;20303;-67
2022/09/10 03:22:50;;;;;;;30.50;17.45;;;16.20;99.90;;;;;;5067740;28;20179;-68
2022/09/10 03:25:17;;;;;;;31.42;18.35;;;16.20;99.90;;;;;;5048671;28;20614;-70
2022/09/10 03:27:43;;;;;;;31.27;18.23;;;16.20;99.90;;;;;;5050249;28;20180;-68
2022/09/10 03:30:10;;;;;;;31.88;19.30;;;16.20;99.90;;;;;;5054303;28;20174;-68
2022/09/10 03:32:37;;;;;;;26.48;18.17;;;16.20;99.90;;;;;;5059490;28;20180;-67
2022/09/10 03:35:05;;;;;;;29.65;18.95;;;16.20;99.90;;;;;;5054861;28;20209;-67
2022/09/10 03:37:30;;;;;;;31.00;18.55;;;16.20;99.90;;;;;;5056924;28;20178;-68
2022/09/10 03:39:57;;;;;;;28.30;18.40;;;16.20;99.90;;;;;;5054382;28;20183;-68
2022/09/10 03:42:23;;;;;;;29.08;18.23;;;16.20;99.90;;;;;;5042406;28;20231;-68
2022/09/10 03:44:49;;;;;;;30.27;18.45;;;16.20;99.90;;;;;;5047646;28;20627;-68
2022/09/10 03:47:15;;;;;;;33.55;18.95;;;16.20;99.90;;;;;;5055613;28;20207;-67
2022/09/10 03:49:41;;;;;;;30.02;18.20;;;16.20;99.90;;;;;;5054692;28;20179;-68
2022/09/10 03:52:11;;;;;;;37.38;18.85;;;16.20;99.90;;;;;;5068075;28;20680;-67
2022/09/10 03:54:38;;;;;;;32.65;18.95;;;16.20;99.90;;;;;;5041474;28;20179;-65
2022/09/10 03:57:04;;;;;;;33.78;18.80;;;16.30;99.90;;;;;;5054993;28;20187;-65
2022/09/10 03:59:31;;;;;;;31.50;18.80;;;16.20;99.90;;;;;;5071658;28;20183;-65
2022/09/10 04:01:59;;;;;;;29.88;19.90;;;16.20;99.90;;;;;;5054264;28;20283;-64
2022/09/10 04:04:25;;;;;;;32.13;20.45;;;16.30;99.90;;;;;;5037412;28;20184;-65
2022/09/10 04:06:52;;;;;;;34.00;20.33;;;16.30;99.90;;;;;;5046251;28;20218;-65
2022/09/10 04:09:19;;;;;;;35.65;21.15;;;16.30;99.90;;;;;;5055944;28;20258;-64
2022/09/10 04:11:45;;;;;;;35.05;21.05;;;16.30;99.90;;;;;;5064400;28;20672;-64
2022/09/10 04:14:11;;;;;;;35.63;22.40;;;16.30;99.90;;;;;;5043500;28;20201;-64
2022/09/10 04:16:40;;;;;;;35.30;23.00;;;16.20;99.90;;;;;;5038355;28;20217;-65
2022/09/10 04:19:07;;;;;;;36.72;23.63;;;16.30;99.90;;;;;;5066926;28;20664;-64
2022/09/10 04:21:34;;;;;;;37.63;24.08;;;16.30;99.90;;;;;;5066672;28;20217;-64
2022/09/10 04:24:00;;;;;;;38.25;25.10;;;16.30;99.90;;;;;;5065970;28;20184;-65
2022/09/10 04:26:27;;;;;;;39.55;25.63;;;16.30;99.90;;;;;;5035955;28;20191;-64
2022/09/10 04:28:53;;;;;;;39.67;26.95;;;16.30;99.90;;;;;;5034823;28;20184;-64
2022/09/10 04:31:20;;;;;;;38.63;26.13;;;16.30;99.90;;;;;;5049794;28;20179;-64
2022/09/10 04:33:46;;;;;;;44.83;27.05;;;16.30;99.90;;;;;;5029109;28;20201;-64
2022/09/10 04:36:14;;;;;;;43.97;27.95;;;16.30;99.90;;;;;;5043101;28;20191;-66
2022/09/10 04:38:42;;;;;;;50.60;28.90;;;16.30;99.90;;;;;;5057947;28;20182;-64
2022/09/10 04:41:11;;;;;;;48.33;29.58;;;16.30;99.90;;;;;;5052243;28;20667;-64
2022/09/10 04:43:37;;;;;;;46.65;30.13;;;16.40;99.90;;;;;;5057271;28;20229;-64
2022/09/10 04:46:04;;;;;;;46.97;29.30;;;16.40;99.90;;;;;;5067286;28;20209;-64
2022/09/10 04:48:32;;;;;;;51.50;30.13;;;16.40;99.90;;;;;;5036790;28;20187;-65
2022/09/10 04:50:58;;;;;;;43.25;28.70;;;16.40;99.90;;;;;;5051835;28;20627;-64
2022/09/10 04:53:26;;;;;;;42.63;29.73;;;16.40;99.90;;;;;;5041644;28;20194;-66
2022/09/10 04:55:54;;;;;;;46.40;29.60;;;16.40;99.90;;;;;;5062307;28;20184;-65
2022/09/10 04:58:20;;;;;;;52.13;30.65;;;16.40;99.90;;;;;;5034242;28;20184;-65
2022/09/10 05:00:46;;;;;;;49.47;30.77;;;16.40;99.90;;;;;;5066469;28;20227;-64
2022/09/10 05:03:13;;;;;;;48.72;29.77;;;16.50;99.90;;;;;;5070940;28;20206;-65
2022/09/10 05:05:45;;;;;;;45.80;29.95;;;16.50;99.90;;;;;;5047282;28;20187;-64
2022/09/10 05:08:12;;;;;;;42.90;29.58;;;16.50;99.90;;;;;;5051047;28;20199;-64
2022/09/10 05:10:39;;;;;;;50.42;30.45;;;16.50;99.90;;;;;;5061416;28;20187;-65
2022/09/10 05:13:07;;;;;;;49.50;30.38;;;16.50;99.90;;;;;;5058289;28;20179;-65
2022/09/10 05:15:34;;;;;;;51.42;30.60;;;16.50;99.90;;;;;;5053826;28;20698;-64
2022/09/10 05:18:02;;;;;;;53.70;30.58;;;16.50;99.90;;;;;;5067346;28;20694;-65
2022/09/10 05:20:30;;;;;;;57.85;31.25;;;16.50;99.90;;;;;;5070199;28;20220;-65
2022/09/10 05:22:57;;;;;;;50.17;31.50;;;16.50;99.90;;;;;;5056172;28;20179;-67
2022/09/10 05:25:23;;;;;;;60.30;31.98;;;16.50;99.90;;;;;;5044806;28;20198;-67
2022/09/10 05:27:50;;;;;;;57.35;31.85;;;16.60;99.90;;;;;;5055020;28;20180;-66
2022/09/10 05:30:18;;;;;;;54.30;31.77;;;16.60;99.90;;;;;;5035038;28;20175;-65
2022/09/10 05:32:45;;;;;;;59.58;31.55;;;16.60;99.90;;;;;;5043760;28;22492;-66
2022/09/10 05:35:12;;;;;;;50.83;30.40;;;16.60;99.90;;;;;;5053024;28;20184;-66
2022/09/10 05:37:40;;;;;;;59.35;32.33;;;16.60;99.90;;;;;;5043849;28;20218;-64
2022/09/10 05:40:08;;;;;;;53.97;29.40;;;16.60;99.90;;;;;;5050826;28;20179;-65
2022/09/10 05:42:34;;;;;;;54.08;31.00;;;16.60;99.90;;;;;;5034942;28;20560;-66
2022/09/10 05:45:01;;;;;;;59.53;31.60;;;16.60;99.90;;;;;;5067033;28;20198;-65
2022/09/10 05:47:27;;;;;;;52.63;29.75;;;16.60;99.90;;;;;;5055847;28;20635;-66
2022/09/10 05:49:55;;;;;;;55.33;29.77;;;16.60;99.90;;;;;;5042489;28;20190;-66
2022/09/10 05:52:23;;;;;;;50.30;27.63;;;16.70;99.90;;;;;;5067655;28;20182;-66
2022/09/10 05:54:49;;;;;;;51.28;27.95;;;16.70;99.90;;;;;;5067882;28;20188;-66
2022/09/10 05:57:14;;;;;;;56.58;29.60;;;16.70;99.90;;;;;;5038092;28;20496;-69
2022/09/10 05:59:40;;;;;;;53.33;30.45;;;16.70;99.90;;;;;;5064754;28;20242;-66
2022/09/10 06:02:14;;;;;;;60.58;29.80;;;16.70;99.90;;;;;;5048038;28;20241;-66
2022/09/10 06:04:40;;;;;;;52.58;30.38;;;16.70;99.90;;;;;;5061772;28;20180;-70
2022/09/10 06:07:08;;;;;;;49.95;30.88;;;16.70;99.90;;;;;;5047451;28;20211;-66
2022/09/10 06:09:34;;;;;;;52.42;30.48;;;16.70;99.90;;;;;;5035519;28;20567;-66
2022/09/10 06:12:26;;;;;;;53.35;30.80;;;16.70;99.90;;;;;;5068834;28;20191;-66
2022/09/10 06:14:52;;;;;;;48.17;28.30;;;16.70;99.90;;;;;;5069829;28;20289;-69
2022/09/10 06:17:19;;;;;;;54.17;31.10;;;16.70;99.90;;;;;;5026273;28;20211;-69
2022/09/10 06:19:47;;;;;;;50.67;31.13;;;16.70;99.90;;;;;;5066257;28;20597;-69
2022/09/10 06:22:15;;;;;;;52.63;35.03;;;16.70;99.90;;;;;;5050748;28;20289;-67
2022/09/10 06:24:47;;;;;;;63.20;39.85;;;16.80;99.90;;;;;;5051413;28;20603;-67
2022/09/10 06:27:14;;;;;;;56.03;32.75;;;16.80;99.90;;;;;;5067694;28;20187;-67
2022/09/10 06:29:39;;;;;;;60.03;34.80;;;16.80;99.90;;;;;;5031821;28;20624;-66
2022/09/10 06:32:07;;;;;;;58.60;34.63;;;16.80;99.90;;;;;;5046818;28;20196;-66
2022/09/10 06:34:34;;;;;;;58.42;35.17;;;16.90;99.90;;;;;;5050376;28;20561;-67
2022/09/10 06:37:01;;;;;;;62.13;37.13;;;16.90;99.90;;;;;;5046384;28;20183;-69
2022/09/10 06:39:28;;;;;;;61.30;36.90;;;16.90;99.90;;;;;;5030853;28;20598;-67
2022/09/10 06:41:57;;;;;;;64.38;40.08;;;17.00;99.90;;;;;;5050789;28;20268;-65
2022/09/10 06:44:41;;;;;;;71.03;39.13;;;17.10;99.90;;;;;;5036685;28;20241;-68
2022/09/10 06:47:30;;;;;;;61.88;36.03;;;17.20;99.90;;;;;;5021741;28;20687;-65
2022/09/10 06:49:56;;;;;;;61.08;34.80;;;17.20;99.90;;;;;;5050347;28;20187;-64
2022/09/10 06:52:23;;;;;;;59.33;36.38;;;17.20;99.90;;;;;;5049142;28;20543;-67
2022/09/10 06:54:56;;;;;;;66.90;36.90;;;17.30;99.90;;;;;;5050480;28;20627;-67
2022/09/10 06:57:37;;;;;;;58.13;36.42;;;17.30;99.90;;;;;;5051800;28;20192;-68
2022/09/10 07:00:03;;;;;;;79.75;48.28;;;17.30;99.90;;;;;;5050232;28;20191;-66
2022/09/10 07:02:29;;;;;;;70.43;40.05;;;17.30;99.90;;;;;;5068326;28;20230;-67
2022/09/10 07:04:55;;;;;;;55.78;35.17;;;17.40;99.90;;;;;;5058207;28;20179;-67
2022/09/10 07:07:21;;;;;;;59.47;36.50;;;17.30;99.90;;;;;;5051549;28;20209;-67
2022/09/10 07:09:48;;;;;;;52.05;31.25;;;17.40;99.90;;;;;;5048945;28;20257;-67
2022/09/10 07:12:16;;;;;;;43.90;30.15;;;17.40;99.90;;;;;;5070008;28;20202;-69
2022/09/10 07:14:42;;;;;;;45.75;29.40;;;17.40;99.90;;;;;;5040335;28;20190;-68
2022/09/10 07:17:10;;;;;;;44.40;29.50;;;17.50;99.90;;;;;;5029284;28;20187;-67
2022/09/10 07:19:37;;;;;;;40.55;27.27;;;17.50;99.90;;;;;;5039873;28;20714;-68
2022/09/10 07:22:13;;;;;;;44.83;27.67;;;17.50;99.90;;;;;;5036043;28;20218;-68
2022/09/10 07:24:39;;;;;;;44.58;28.35;;;17.50;99.90;;;;;;5045584;28;20212;-70
2022/09/10 07:27:09;;;;;;;39.65;26.25;;;17.50;99.90;;;;;;5061156;28;20570;-66
2022/09/10 07:29:36;;;;;;;39.85;27.77;;;17.60;99.90;;;;;;5052252;28;20282;-67
2022/09/10 07:32:04;;;;;;;39.03;27.63;;;17.60;99.90;;;;;;5057669;28;20234;-68
2022/09/10 07:34:31;;;;;;;46.75;28.27;;;17.60;99.90;;;;;;5074319;28;20210;-67
2022/09/10 07:36:57;;;;;;;45.38;28.23;;;17.60;99.90;;;;;;5056579;28;20187;-68
2022/09/10 07:39:23;;;;;;;40.95;27.58;;;17.60;99.90;;;;;;5059102;28;20195;-68
2022/09/10 07:41:49;;;;;;;37.88;28.20;;;17.60;99.90;;;;;;5054108;28;20202;-67
2022/09/10 07:44:20;;;;;;;35.95;26.15;;;17.60;99.90;;;;;;5038158;28;20171;-67
2022/09/10 07:46:47;;;;;;;38.17;27.55;;;17.70;99.90;;;;;;5055081;28;20666;-67
2022/09/10 07:49:14;;;;;;;37.95;27.45;;;17.70;99.90;;;;;;5058094;28;20171;-70
2022/09/10 07:51:44;;;;;;;39.58;27.38;;;17.80;99.90;;;;;;5040724;28;20187;-69
2022/09/10 07:54:09;;;;;;;35.13;27.67;;;17.80;99.90;;;;;;5057226;28;20186;-69
2022/09/10 07:56:42;;;;;;;35.65;27.13;;;17.80;99.90;;;;;;5057481;28;20238;-69
2022/09/10 07:59:12;;;;;;;36.13;26.80;;;17.90;99.90;;;;;;5056498;28;20221;-69
2022/09/10 08:01:44;;;;;;;37.20;26.65;;;17.90;99.90;;;;;;5067384;28;20239;-69
2022/09/10 08:04:11;;;;;;;32.40;24.48;;;18.00;99.90;;;;;;5062159;28;20199;-69
2022/09/10 08:06:38;;;;;;;29.15;22.50;;;18.00;99.90;;;;;;5040860;28;20194;-69
2022/09/10 08:09:06;;;;;;;34.25;23.70;;;18.10;99.90;;;;;;5057796;28;20183;-69
2022/09/10 08:11:33;;;;;;;29.65;23.08;;;18.10;99.90;;;;;;5068749;28;20182;-69
2022/09/10 08:14:00;;;;;;;27.77;21.77;;;18.10;99.90;;;;;;5075661;28;20183;-69
2022/09/10 08:16:27;;;;;;;30.10;21.38;;;18.20;99.90;;;;;;5029332;28;20183;-70
2022/09/10 08:18:59;;;;;;;24.65;20.70;;;18.20;99.90;;;;;;5063980;28;20184;-69
2022/09/10 08:21:29;;;;;;;26.15;19.40;;;18.20;99.90;;;;;;5035951;28;20262;-69
2022/09/10 08:23:57;;;;;;;27.45;19.95;;;18.20;99.90;;;;;;5058915;28;20207;-69
2022/09/10 08:26:25;;;;;;;23.95;18.67;;;18.30;99.90;;;;;;5042025;28;20262;-69
2022/09/10 08:28:57;;;;;;;28.83;19.10;;;18.30;99.90;;;;;;5059111;28;20183;-69
2022/09/10 08:31:25;;;;;;;29.02;21.35;;;18.30;99.90;;;;;;5071073;28;20215;-69
2022/09/10 08:34:05;;;;;;;27.90;20.27;;;18.30;99.90;;;;;;5054444;28;20270;-68
2022/09/10 08:36:33;;;;;;;21.92;17.88;;;18.30;99.90;;;;;;5051204;28;20195;-69
2022/09/10 08:39:00;;;;;;;25.60;17.45;;;18.30;99.90;;;;;;5055430;28;20182;-68
2022/09/10 08:41:39;;;;;;;20.40;14.93;;;18.30;99.90;;;;;;5067197;28;20215;-68
2022/09/10 08:44:47;;;;;;;20.67;16.48;;;18.40;99.90;;;;;;5046777;28;20183;-70
2022/09/10 08:47:28;;;;;;;18.50;14.00;;;18.50;99.90;;;;;;5039944;28;20176;-69
2022/09/10 08:50:36;;;;;;;21.73;16.98;;;18.60;99.90;;;;;;5053196;28;20627;-70
2022/09/10 08:53:17;;;;;;;22.20;17.17;;;18.70;99.90;;;;;;5053450;28;20179;-70
2022/09/10 08:55:44;;;;;;;21.45;16.05;;;18.80;99.90;;;;;;5035031;28;20226;-70
2022/09/10 08:58:17;;;;;;;19.52;14.45;;;18.90;99.90;;;;;;5053241;28;20171;-70
2022/09/10 09:00:46;;;;;;;21.75;14.43;;;19.00;99.90;;;;;;5055920;28;20674;-69
2022/09/10 09:03:34;;;;;;;19.52;14.23;;;19.10;99.90;;;;;;5053785;28;20623;-70
2022/09/10 09:06:02;;;;;;;17.27;13.27;;;19.10;99.90;;;;;;5039562;28;20296;-70
2022/09/10 09:08:47;;;;;;;18.40;11.98;;;19.20;99.90;;;;;;5050148;28;20187;-69
2022/09/10 09:11:21;;;;;;;13.68;10.10;;;19.20;99.90;;;;;;5046983;28;20540;-69
2022/09/10 09:14:17;;;;;;;11.68;8.68;;;19.20;99.90;;;;;;5054149;28;20627;-69
2022/09/10 09:17:22;;;;;;;11.48;9.13;;;19.30;99.90;;;;;;5067522;28;20270;-69
2022/09/10 09:20:13;;;;;;;12.98;9.27;;;19.40;99.90;;;;;;5051895;28;20297;-70
2022/09/10 09:22:55;;;;;;;18.23;10.18;;;19.50;99.90;;;;;;5032788;28;20282;-69
2022/09/10 09:26:03;;;;;;;12.60;10.27;;;19.50;99.90;;;;;;5045176;28;20195;-72
2022/09/10 09:28:46;;;;;;;15.25;10.40;;;19.50;99.90;;;;;;5042629;28;20225;-70
2022/09/10 09:31:21;;;;;;;12.77;9.50;;;19.50;99.90;;;;;;5052810;28;20274;-70
2022/09/10 09:33:50;;;;;;;17.25;10.63;;;19.50;99.90;;;;;;5053106;28;20166;-69
2022/09/10 09:36:24;;;;;;;10.73;7.47;;;19.60;99.90;;;;;;5051817;28;20225;-70
2022/09/10 09:38:50;;;;;;;10.52;6.85;;;19.50;99.90;;;;;;5038520;28;20627;-69
2022/09/10 09:41:46;;;;;;;11.70;7.50;;;19.50;99.90;;;;;;5046322;28;20268;-70
2022/09/10 09:44:33;;;;;;;12.25;7.90;;;19.40;99.90;;;;;;5060212;28;20187;-69
2022/09/10 09:47:00;;;;;;;12.57;8.02;;;19.40;99.90;;;;;;5053968;28;20535;-69
2022/09/10 09:49:27;;;;;;;11.82;7.72;;;19.40;99.90;;;;;;5048860;28;20556;-70
2022/09/10 09:51:54;;;;;;;11.25;7.18;;;19.40;99.90;;;;;;5044080;28;20198;-70
2022/09/10 09:54:25;;;;;;;11.43;6.85;;;19.40;99.90;;;;;;5046754;28;20187;-70
2022/09/10 09:56:53;;;;;;;11.82;6.70;;;19.40;99.90;;;;;;5052405;28;20183;-70
2022/09/10 09:59:36;;;;;;;13.60;6.15;;;19.40;99.90;;;;;;5053256;28;20176;-70
2022/09/10 10:02:15;;;;;;;8.63;6.25;;;19.40;99.90;;;;;;5050647;28;20284;-70
2022/09/10 10:04:53;;;;;;;10.88;6.25;;;19.50;99.90;;;;;;5052577;28;20183;-73
2022/09/10 10:07:31;;;;;;;12.60;6.97;;;19.60;99.90;;;;;;5033506;28;20164;-70
2022/09/10 10:10:02;;;;;;;10.27;6.22;;;19.80;99.90;;;;;;5035319;28;20168;-71
2022/09/10 10:12:32;;;;;;;8.30;6.45;;;20.00;99.90;;;;;;5062353;28;20656;-71
2022/09/10 10:15:01;;;;;;;13.55;6.30;;;20.30;99.90;;;;;;5052837;28;20189;-71
2022/09/10 10:17:32;;;;;;;9.32;6.68;;;20.50;99.90;;;;;;5043375;28;20191;-71
2022/09/10 10:20:05;;;;;;;8.05;6.43;;;20.70;99.90;;;;;;5038721;28;20175;-72
2022/09/10 10:22:31;;;;;;;8.35;6.70;;;20.80;99.90;;;;;;5047308;28;20214;-70
2022/09/10 10:25:00;;;;;;;13.65;7.18;;;20.80;99.90;;;;;;5063315;28;20253;-71
2022/09/10 10:27:31;;;;;;;7.70;6.90;;;20.80;99.90;;;;;;5050341;28;20253;-70
2022/09/10 10:30:15;;;;;;;12.68;7.93;;;20.70;99.90;;;;;;5052677;28;20619;-70
2022/09/10 10:32:52;;;;;;;14.63;6.95;;;20.70;99.90;;;;;;5038501;28;20176;-73
2022/09/10 10:35:37;;;;;;;8.50;4.90;;;20.70;99.90;;;;;;5042850;28;20195;-69
2022/09/10 10:38:29;;;;;;;8.88;5.68;;;20.80;99.90;;;;;;5052825;28;20604;-70
2022/09/10 10:41:28;;;;;;;9.23;5.78;;;21.00;99.90;;;;;;5058190;28;20211;-70
2022/09/10 10:44:06;;;;;;;9.82;6.05;;;21.20;99.90;;;;;;5038860;28;20187;-70
2022/09/10 10:47:00;;;;;;;9.52;6.40;;;21.40;99.90;;;;;;5051404;28;20233;-70
2022/09/10 10:50:10;;;;;;;11.68;7.55;;;21.60;99.90;;;;;;5052692;28;20211;-70
2022/09/10 10:52:56;;;;;;;12.50;9.88;;;21.70;99.90;;;;;;5028381;28;20191;-71
2022/09/10 10:55:39;;;;;;;10.30;7.60;;;21.90;99.90;;;;;;5043230;28;20203;-70
2022/09/10 10:58:15;;;;;;;12.68;9.00;;;22.10;99.90;;;;;;5052604;28;20164;-70
2022/09/10 11:01:19;;;;;;;11.10;6.30;;;22.30;99.90;;;;;;5052384;28;20198;-69
2022/09/10 11:04:12;;;;;;;8.18;5.40;;;22.50;99.90;;;;;;5001009;28;20733;-71
2022/09/10 11:06:48;;;;;;;10.60;6.57;;;22.70;99.90;;;;;;5042241;28;20168;-69
2022/09/10 11:09:39;;;;;;;7.70;5.05;;;22.90;99.90;;;;;;5051753;28;20187;-68
2022/09/10 11:12:14;;;;;;;7.75;5.07;;;22.90;99.90;;;;;;5068707;28;20189;-73
2022/09/10 11:15:17;;;;;;;9.55;4.07;;;22.80;99.90;;;;;;5057531;28;20187;-72
2022/09/10 11:18:14;;;;;;;5.80;3.45;;;22.80;99.90;;;;;;5062890;28;20194;-67
2022/09/10 11:21:01;;;;;;;7.53;3.55;;;22.60;99.90;;;;;;5045332;28;20223;-71
2022/09/10 11:23:45;;;;;;;10.05;3.78;;;22.60;99.90;;;;;;5050733;28;20179;-70
2022/09/10 11:26:23;;;;;;;5.47;3.67;;;22.70;99.90;;;;;;5046923;28;20263;-68
2022/09/10 11:29:06;;;;;;;8.50;5.95;;;22.70;99.90;;;;;;5052249;28;20166;-70
2022/09/10 11:31:41;;;;;;;6.03;3.92;;;22.80;99.90;;;;;;5052095;28;20186;-69
2022/09/10 11:34:27;;;;;;;6.25;2.80;;;22.90;99.90;;;;;;5051535;28;20744;-69
2022/09/10 11:37:17;;;;;;;5.95;2.80;;;23.00;99.90;;;;;;5038612;28;20607;-69
2022/09/10 11:39:51;;;;;;;4.30;3.00;;;23.20;99.90;;;;;;5033681;28;20262;-71
2022/09/10 11:42:31;;;;;;;6.75;3.33;;;23.30;99.90;;;;;;5049480;28;20188;-70
2022/09/10 11:45:18;;;;;;;6.50;3.30;;;23.30;99.90;;;;;;5037009;28;20183;-71
2022/09/10 11:48:10;;;;;;;7.10;2.88;;;23.10;99.90;;;;;;5043435;28;20623;-70
2022/09/10 11:50:43;;;;;;;5.53;2.78;;;23.10;99.90;;;;;;5054604;28;20183;-68
2022/09/10 11:53:14;;;;;;;7.45;2.72;;;23.10;99.90;;;;;;5054583;28;20228;-68
2022/09/10 11:56:09;;;;;;;5.70;3.22;;;23.10;99.90;;;;;;5048696;28;20175;-71
2022/09/10 11:59:27;;;;;;;6.45;2.58;;;23.10;99.90;;;;;;5044605;28;20218;-68
2022/09/10 12:02:06;;;;;;;4.55;2.03;;;23.10;99.90;;;;;;4995951;28;20321;-55
2022/09/10 12:04:58;;;;;;;4.53;2.53;;;23.00;99.90;;;;;;5055746;28;20173;-57
2022/09/10 12:08:05;;;;;;;3.85;2.40;;;23.00;99.90;;;;;;5034511;28;20213;-65
2022/09/10 12:10:34;;;;;;;5.72;2.90;;;23.20;99.90;;;;;;5032323;28;20198;-58
2022/09/10 12:13:00;;;;;;;4.30;2.63;;;23.30;99.90;;;;;;5034376;28;20513;-59
2022/09/10 12:15:30;;;;;;;4.05;3.00;;;23.40;99.90;;;;;;5041341;28;20195;-56
2022/09/10 12:18:30;;;;;;;5.18;2.45;;;23.60;99.90;;;;;;5056019;28;20175;-58
2022/09/10 12:21:01;;;;;;;3.13;1.83;;;23.50;99.60;;;;;;5030240;28;20241;-56
2022/09/10 12:23:30;;;;;;;4.20;2.20;;;23.50;99.20;;;;;;5054981;28;20423;-58
2022/09/10 12:26:08;;;;;;;3.70;1.80;;;23.50;98.30;;;;;;5055218;28;20235;-52
2022/09/10 12:29:01;;;;;;;6.50;2.50;;;23.70;98.60;;;;;;5054413;28;20766;-56
2022/09/10 12:32:06;;;;;;;6.10;3.03;;;23.80;98.70;;;;;;5045345;28;20320;-57
2022/09/10 12:34:32;;;;;;;10.32;4.10;;;24.00;99.30;;;;;;5052255;28;20212;-55
2022/09/10 12:36:57;;;;;;;7.65;3.47;;;24.20;99.40;;;;;;5038020;28;20591;-54
2022/09/10 12:39:25;;;;;;;11.35;3.85;;;24.40;99.60;;;;;;5048351;28;20188;-51
2022/09/10 12:41:51;;;;;;;7.60;4.25;;;24.40;99.50;;;;;;5048421;28;20199;-53
2022/09/10 12:44:34;;;;;;;8.80;3.95;;;24.30;99.10;;;;;;5052354;28;20183;-49
2022/09/10 12:47:12;;;;;;;9.88;4.05;;;24.10;99.30;;;;;;5055177;28;20270;-49
2022/09/10 12:50:03;;;;;;;9.43;3.55;;;24.00;99.30;;;;;;5049444;28;20178;-48
2022/09/10 12:52:50;;;;;;;8.85;4.20;;;23.90;99.30;;;;;;5037686;28;20171;-52
2022/09/10 12:55:50;;;;;;;8.32;3.75;;;23.90;99.50;;;;;;5040043;28;20174;-51
2022/09/10 12:58:36;;;;;;;8.10;4.43;;;24.10;99.90;;;;;;5037335;28;20301;-53
2022/09/10 13:01:18;;;;;;;9.55;3.83;;;24.40;99.20;;;;;;5045431;28;20674;-50
2022/09/10 13:03:55;;;;;;;8.10;3.25;;;24.40;98.80;;;;;;5045980;28;20306;-51